Time;durP1;ratioP1;P1;durP2;ratioP2;P2;SDS_P1;SDS_P2;PMS_P1;PMS_P2;Temp;Humidity;BMP_temperature;BMP_pressure;BME280_temperature;BME280_humidity;BME280_pressure;Samples;Min_cycle;Max_cycle;Signal;HPM_P1;HPM_P2
2021/09/06 00:01:13;;;;;;;13.50;9.98;;;18.80;62.90;;;;;;10371334;28;20037;-51
2021/09/06 00:06:14;;;;;;;13.75;10.95;;;18.70;62.70;;;;;;10371398;28;20519;-48
2021/09/06 00:11:14;;;;;;;15.05;11.30;;;18.70;62.60;;;;;;10370924;28;20477;-49
2021/09/06 00:16:15;;;;;;;12.98;10.15;;;18.70;62.50;;;;;;10370564;28;20496;-52
2021/09/06 00:21:17;;;;;;;12.57;10.00;;;18.70;62.50;;;;;;10370882;28;20057;-49
2021/09/06 00:26:17;;;;;;;12.45;10.40;;;18.70;62.40;;;;;;10370123;28;20052;-53
2021/09/06 00:31:18;;;;;;;11.63;10.07;;;18.70;62.40;;;;;;10370379;28;20381;-53
2021/09/06 00:36:18;;;;;;;11.10;9.70;;;18.80;62.00;;;;;;10370065;28;20032;-51
2021/09/06 00:41:20;;;;;;;10.57;9.30;;;18.70;62.10;;;;;;10368131;28;20036;-53
2021/09/06 00:46:22;;;;;;;10.75;9.50;;;18.70;62.10;;;;;;10369740;28;20112;-51
2021/09/06 00:51:23;;;;;;;14.82;9.82;;;18.60;62.00;;;;;;10365649;28;20428;-50
2021/09/06 00:56:24;;;;;;;11.15;9.13;;;18.60;62.00;;;;;;10369125;28;20018;-53
2021/09/06 01:01:24;;;;;;;11.40;9.23;;;18.60;62.00;;;;;;10366733;28;20396;-52
2021/09/06 01:06:25;;;;;;;12.88;9.93;;;18.60;61.90;;;;;;10369030;28;20116;-51
2021/09/06 01:11:26;;;;;;;11.85;10.57;;;18.60;61.90;;;;;;10366479;28;20029;-53
2021/09/06 01:16:27;;;;;;;13.75;10.25;;;18.60;61.80;;;;;;10368235;28;20089;-50
2021/09/06 01:21:27;;;;;;;12.45;9.23;;;18.50;61.60;;;;;;10366868;28;20038;-51
2021/09/06 01:26:28;;;;;;;12.13;9.50;;;18.60;61.70;;;;;;10368336;28;20033;-51
2021/09/06 01:31:28;;;;;;;12.07;9.85;;;18.50;61.60;;;;;;10364912;28;20030;-54
2021/09/06 01:36:29;;;;;;;15.23;10.15;;;18.50;61.50;;;;;;10367736;28;20026;-49
2021/09/06 01:41:30;;;;;;;12.13;9.23;;;18.50;61.60;;;;;;10364828;28;20030;-53
2021/09/06 01:46:34;;;;;;;12.75;9.90;;;18.50;61.60;;;;;;10367469;28;20033;-53
2021/09/06 01:51:35;;;;;;;12.55;8.95;;;18.50;61.40;;;;;;10365101;28;20041;-53
2021/09/06 01:56:36;;;;;;;11.27;9.35;;;18.50;61.80;;;;;;10366697;28;20465;-51
2021/09/06 02:01:37;;;;;;;10.50;8.32;;;18.50;61.50;;;;;;10366400;28;20057;-53
2021/09/06 02:06:37;;;;;;;12.05;9.68;;;18.50;61.20;;;;;;10366472;28;20026;-54
2021/09/06 02:11:38;;;;;;;12.07;9.45;;;18.50;61.40;;;;;;10365754;28;20504;-51
2021/09/06 02:16:38;;;;;;;10.77;9.40;;;18.50;61.70;;;;;;10373573;28;20406;-47
2021/09/06 02:21:39;;;;;;;10.18;8.80;;;18.50;61.40;;;;;;10373028;28;20112;-51
2021/09/06 02:26:39;;;;;;;13.05;8.70;;;18.40;61.60;;;;;;10373449;28;20053;-53
2021/09/06 02:31:40;;;;;;;10.18;8.57;;;18.40;61.10;;;;;;10372587;28;20034;-52
2021/09/06 02:36:41;;;;;;;10.68;8.38;;;18.40;61.00;;;;;;10373327;28;20482;-52
2021/09/06 02:41:41;;;;;;;9.88;7.60;;;18.40;60.90;;;;;;10373207;28;20105;-52
2021/09/06 02:46:42;;;;;;;10.02;8.15;;;18.30;60.80;;;;;;10374544;28;20464;-47
2021/09/06 02:51:42;;;;;;;10.98;7.35;;;18.30;61.00;;;;;;10374077;28;20030;-49
2021/09/06 02:56:44;;;;;;;9.48;7.85;;;18.30;61.00;;;;;;10375165;28;20043;-51
2021/09/06 03:01:44;;;;;;;8.13;6.93;;;18.30;61.00;;;;;;10373230;28;20026;-53
2021/09/06 03:06:45;;;;;;;8.63;7.25;;;18.30;61.00;;;;;;10373972;28;20473;-53
2021/09/06 03:11:45;;;;;;;7.55;6.72;;;18.30;61.40;;;;;;10373523;28;20026;-52
2021/09/06 03:16:46;;;;;;;10.10;7.07;;;18.30;61.50;;;;;;10373947;28;20034;-49
2021/09/06 03:21:47;;;;;;;9.48;7.55;;;18.30;61.50;;;;;;10373486;28;20026;-55
2021/09/06 03:26:47;;;;;;;7.40;6.60;;;18.40;61.50;;;;;;10372538;28;20389;-53
2021/09/06 03:31:48;;;;;;;8.77;7.25;;;18.30;61.60;;;;;;10372729;28;20041;-52
2021/09/06 03:36:48;;;;;;;9.82;6.68;;;18.30;61.60;;;;;;10372367;28;20152;-50
2021/09/06 03:41:49;;;;;;;8.75;5.97;;;18.30;61.70;;;;;;10372486;28;20388;-54
2021/09/06 03:46:50;;;;;;;8.25;6.82;;;18.40;61.80;;;;;;10372296;28;20049;-50
2021/09/06 03:51:50;;;;;;;7.68;6.13;;;18.30;61.80;;;;;;10371675;28;20510;-53
2021/09/06 03:56:51;;;;;;;9.88;5.78;;;18.30;61.80;;;;;;10371760;28;20029;-49
2021/09/06 04:01:51;;;;;;;7.85;5.22;;;18.30;61.80;;;;;;10371510;28;20022;-54
2021/09/06 04:06:52;;;;;;;6.60;5.88;;;18.40;61.70;;;;;;10371521;28;20061;-51
2021/09/06 04:11:53;;;;;;;6.88;5.20;;;18.40;61.80;;;;;;10370939;28;20072;-50
2021/09/06 04:16:53;;;;;;;8.27;5.25;;;18.40;61.90;;;;;;10371066;28;20037;-55
2021/09/06 04:21:54;;;;;;;6.78;5.53;;;18.30;62.00;;;;;;10370874;28;20021;-53
2021/09/06 04:26:54;;;;;;;8.57;6.25;;;18.30;61.90;;;;;;10369650;28;20041;-52
2021/09/06 04:31:55;;;;;;;6.43;5.32;;;18.30;61.90;;;;;;10370096;28;20069;-54
2021/09/06 04:36:55;;;;;;;6.68;4.75;;;18.30;61.90;;;;;;10369537;28;20395;-53
2021/09/06 04:41:56;;;;;;;6.53;5.25;;;18.30;62.10;;;;;;10369866;28;20079;-50
2021/09/06 04:46:56;;;;;;;6.63;5.18;;;18.30;62.10;;;;;;10369858;28;20033;-53
2021/09/06 04:51:57;;;;;;;6.45;5.03;;;18.30;62.00;;;;;;10369332;28;20382;-53
2021/09/06 04:56:57;;;;;;;5.55;4.38;;;18.20;61.90;;;;;;10369498;28;20025;-54
2021/09/06 05:01:58;;;;;;;6.60;4.95;;;18.20;62.00;;;;;;10368929;28;20455;-53
2021/09/06 05:06:59;;;;;;;6.03;4.47;;;18.20;62.10;;;;;;10369110;28;20021;-49
2021/09/06 05:11:59;;;;;;;5.47;4.18;;;18.30;62.00;;;;;;10368669;28;20063;-51
2021/09/06 05:17:00;;;;;;;5.65;4.40;;;18.30;61.90;;;;;;10369080;28;20087;-52
2021/09/06 05:22:01;;;;;;;5.28;4.25;;;18.30;61.90;;;;;;10368510;28;20045;-49
2021/09/06 05:27:01;;;;;;;7.05;3.92;;;18.20;61.80;;;;;;10368858;28;20116;-53
2021/09/06 05:32:02;;;;;;;4.25;3.70;;;18.30;62.00;;;;;;10368238;28;20029;-52
2021/09/06 05:37:03;;;;;;;6.72;3.95;;;18.40;62.10;;;;;;10366308;28;20108;-54
2021/09/06 05:42:04;;;;;;;6.93;4.32;;;18.60;62.00;;;;;;10366274;28;20038;-50
2021/09/06 05:47:04;;;;;;;18.33;4.93;;;18.70;61.70;;;;;;10365839;28;20029;-52
2021/09/06 05:52:05;;;;;;;10.90;3.65;;;18.80;61.60;;;;;;10365868;28;20026;-51
2021/09/06 05:57:06;;;;;;;14.70;5.28;;;19.00;61.70;;;;;;10365930;28;20049;-52
2021/09/06 06:02:07;;;;;;;18.02;6.00;;;19.10;61.50;;;;;;10366586;28;20030;-51
2021/09/06 06:07:07;;;;;;;23.23;5.72;;;19.30;61.40;;;;;;10364803;28;20142;-49
2021/09/06 07:00:10;;;;;;;13.40;4.23;;;19.50;61.30;;;;;;104044737;28;20746;-52
2021/09/06 07:50:12;;;;;;;10.03;4.20;;;19.80;61.40;;;;;;103709436;28;20030;-52
2021/09/06 08:40:13;;;;;;;9.73;3.30;;;19.70;61.70;;;;;;103630014;28;20044;-55
2021/09/06 09:30:25;;;;;;;10.25;3.15;;;19.60;62.90;;;;;;103659784;28;20509;-52
2021/09/06 10:20:27;;;;;;;7.97;3.83;;;19.50;62.60;;;;;;103645313;28;20756;-53
2021/09/06 11:10:27;;;;;;;16.10;9.90;;;19.50;63.30;;;;;;103555560;28;20147;-51
2021/09/06 12:00:28;;;;;;;17.65;12.18;;;19.60;63.90;;;;;;103703593;28;20177;-54
2021/09/06 12:50:29;;;;;;;16.30;10.38;;;19.60;63.40;;;;;;103689431;28;20040;-53
2021/09/06 13:40:29;;;;;;;13.10;7.65;;;19.60;61.50;;;;;;103697992;28;20034;-53
2021/09/06 14:30:30;;;;;;;8.35;5.90;;;19.60;60.00;;;;;;103688986;28;20038;-55
2021/09/06 15:20:31;;;;;;;8.40;5.63;;;19.50;59.30;;;;;;103753601;28;20038;-51
2021/09/06 16:10:32;;;;;;;7.07;5.20;;;19.60;59.00;;;;;;103741711;28;20061;-53
2021/09/06 17:00:32;;;;;;;7.43;5.33;;;19.50;58.80;;;;;;103661309;28;20551;-56
2021/09/06 17:50:33;;;;;;;10.10;5.18;;;19.50;59.00;;;;;;103187006;23;20051;-60
2021/09/06 18:40:34;;;;;;;17.02;5.88;;;19.50;60.20;;;;;;102179534;28;20040;-59
2021/09/06 19:30:34;;;;;;;15.73;6.50;;;19.50;62.00;;;;;;102186158;28;20391;-58
2021/09/06 20:20:35;;;;;;;29.08;7.15;;;19.50;64.30;;;;;;102092983;28;20032;-57
2021/09/06 21:10:35;;;;;;;11.65;5.70;;;19.50;66.40;;;;;;102175800;28;20167;-56
2021/09/06 22:00:36;;;;;;;14.02;5.25;;;19.40;66.20;;;;;;102221808;29;20507;-55
2021/09/06 22:50:37;;;;;;;7.78;4.95;;;19.40;65.90;;;;;;102215104;28;20103;-57
2021/09/06 23:40:37;;;;;;;6.53;4.55;;;19.40;65.90;;;;;;102339790;23;20394;-57
